Smoky Hollow, Minnesota
Current Conditions -  °F | °C
As of 8:16 AM on Monday 24 Nov 2014 (Local Time) from KXVG Reporting Station
Light Snow Light Snow  
Wind Chill:   Ceiling: 1400
Heat Index: 16°   Visibility: 4mi
Dew Point: 14°   Wind: 12mph
Humidity: 93%   Direction: 310°NW
Pressure: 29.44"   Gusts: 21mph
Location:  47.0973°N, 93.9173°W
Report Text: KXVG 241416Z AUTO 31010G18KT 284V344 4SM -SN OVC014 M09/M10 A2944 RMK AO2
Loading
Personal Weather Stations






























Interactive Weather Map New forecast layout! Learn more

10-Day Weather Forecast

Advertisements
Track Severe Weather on mobile